Isle of North Uist, United Kingdom
Current Conditions -  °F | °C
As of 9:50 PM on Thursday 23 Oct 2014 (Local Time) from EGPL Reporting Station
Scattered Clouds Scattered Clouds  
Wind Chill: 10°   Ceiling: Unl
Heat Index: 10°   Visibility: NA
Dew Point:   Wind: 23mph
Humidity: 76%   Direction: 250°WSW
Pressure: 29.59"   Gusts: NA
Location:  57.6°N, 7.16°W
Report Text: EGPL 232050Z AUTO 25020KT //// // FEW037/// SCT047/// 10/06 Q1002
Loading
Personal Weather Stations






























Interactive Weather Map
Tropical Storm Tracking
New forecast layout! Learn more

10-Day Weather Forecast

Advertisements
Track Severe Weather on mobile